createdAt,value
2023-05-19T00:01:04.271Z,98671.52
2023-05-19T00:02:12.645Z,98669.85
2023-05-19T00:03:22.863Z,98670.51
2023-05-19T00:04:31.357Z,98667.00
2023-05-19T00:05:47.203Z,98665.10
2023-05-19T00:06:55.179Z,98665.98
2023-05-19T00:08:02.906Z,98671.34
2023-05-19T00:09:11.934Z,98672.27
2023-05-19T00:10:20.098Z,98671.83
2023-05-19T00:11:28.902Z,98670.19
2023-05-19T00:12:36.113Z,98667.58
2023-05-19T00:13:42.904Z,98671.02
2023-05-19T00:14:49.864Z,98671.19
2023-05-19T00:15:57.400Z,98672.35
2023-05-19T00:17:05.740Z,98674.69
2023-05-19T00:18:17.971Z,98675.08
2023-05-19T00:19:26.626Z,98674.39
2023-05-19T00:20:34.172Z,98672.67
2023-05-19T00:21:41.782Z,98670.15
2023-05-19T00:22:48.649Z,98670.38
2023-05-19T00:23:55.886Z,98673.48
2023-05-19T00:25:02.500Z,98673.88
2023-05-19T00:26:10.216Z,98671.92
2023-05-19T00:27:19.128Z,98670.35
2023-05-19T00:28:26.592Z,98671.08
2023-05-19T00:29:33.742Z,98668.94
2023-05-19T00:30:40.609Z,98670.61
2023-05-19T00:31:48.836Z,98668.72
2023-05-19T00:32:56.890Z,98668.81
2023-05-19T00:34:04.451Z,98670.81
2023-05-19T00:35:12.137Z,98667.02
2023-05-19T00:36:19.210Z,98665.90
2023-05-19T00:37:26.316Z,98665.46
2023-05-19T00:38:34.667Z,98664.34
2023-05-19T00:39:41.271Z,98665.63
2023-05-19T00:40:48.343Z,98668.35
2023-05-19T00:41:56.244Z,98668.29
2023-05-19T00:43:03.281Z,98672.02
2023-05-19T00:44:10.734Z,98673.39
2023-05-19T00:45:17.818Z,98676.17
2023-05-19T00:46:25.066Z,98677.55
2023-05-19T00:47:32.497Z,98683.52
2023-05-19T00:48:39.763Z,98684.56
2023-05-19T00:49:47.724Z,98682.10
2023-05-19T00:50:56.631Z,98683.71
2023-05-19T00:52:04.870Z,98686.44
2023-05-19T00:53:12.338Z,98686.83
2023-05-19T00:54:20.494Z,98685.09
2023-05-19T00:55:30.260Z,98681.13
2023-05-19T00:56:37.818Z,98681.89
2023-05-19T00:57:45.916Z,98680.95
2023-05-19T00:58:54.203Z,98682.63
2023-05-19T01:00:02.897Z,98682.95
2023-05-19T01:01:10.919Z,98684.45
2023-05-19T01:02:19.857Z,98683.34
2023-05-19T01:03:27.681Z,98683.11
2023-05-19T01:04:36.863Z,98684.82
2023-05-19T01:05:45.883Z,98682.82
2023-05-19T01:06:57.921Z,98684.59
2023-05-19T01:08:05.482Z,98681.73
2023-05-19T01:09:13.569Z,98684.70
2023-05-19T01:10:22.692Z,98681.35
2023-05-19T01:11:31.176Z,98683.19
2023-05-19T01:12:38.916Z,98685.11
2023-05-19T01:13:46.116Z,98687.61
2023-05-19T01:14:52.824Z,98687.22
2023-05-19T01:16:31.716Z,98688.27
2023-05-19T01:17:48.132Z,98691.84
2023-05-19T01:19:03.897Z,98692.45
2023-05-19T01:20:30.997Z,98692.23
2023-05-19T01:22:18.824Z,98691.58
2023-05-19T01:23:51.078Z,98689.96
2023-05-19T01:25:23.284Z,98690.13
2023-05-19T01:27:04.934Z,98689.41
2023-05-19T01:28:41.082Z,98688.81
2023-05-19T01:30:17.735Z,98690.32
2023-05-19T01:31:25.363Z,98692.77
2023-05-19T01:32:32.887Z,98697.20
2023-05-19T01:33:43.286Z,98696.67
2023-05-19T01:34:51.150Z,98697.05
2023-05-19T01:35:58.438Z,98695.33
2023-05-19T01:37:06.746Z,98695.83
2023-05-19T01:38:14.912Z,98696.48
2023-05-19T01:39:23.199Z,98697.11
2023-05-19T01:40:31.344Z,98697.11
2023-05-19T01:41:38.790Z,98693.80
2023-05-19T01:42:48.614Z,98691.02
2023-05-19T01:43:57.171Z,98692.62
2023-05-19T01:45:05.750Z,98692.34
2023-05-19T01:46:13.028Z,98690.17
2023-05-19T01:47:20.688Z,98689.66
2023-05-19T01:48:28.772Z,98695.45
2023-05-19T01:49:38.778Z,98692.88
2023-05-19T01:50:46.748Z,98698.60
2023-05-19T01:51:55.633Z,98700.45
2023-05-19T01:53:03.088Z,98706.48
2023-05-19T01:54:10.275Z,98707.48
2023-05-19T01:55:19.354Z,98709.88
2023-05-19T01:56:40.933Z,98712.43
2023-05-19T01:58:16.758Z,98715.15
2023-05-19T01:59:59.378Z,98721.46
2023-05-19T02:01:31.962Z,98722.54
2023-05-19T02:03:13.323Z,98723.26
2023-05-19T02:04:41.271Z,98724.05
2023-05-19T02:06:14.478Z,98726.61
2023-05-19T02:07:33.786Z,98724.77
2023-05-19T02:08:52.853Z,98725.88
2023-05-19T02:10:12.907Z,98722.64
2023-05-19T02:11:28.612Z,98724.80
2023-05-19T02:12:37.774Z,98726.80
2023-05-19T02:13:45.689Z,98723.89
2023-05-19T02:15:19.395Z,98730.84
2023-05-19T02:16:31.397Z,98732.34
2023-05-19T02:17:42.644Z,98733.30
2023-05-19T02:18:50.241Z,98735.39
2023-05-19T02:19:58.131Z,98737.33
2023-05-19T02:21:05.954Z,98738.31
2023-05-19T02:22:13.955Z,98737.35
2023-05-19T02:23:22.319Z,98741.41
2023-05-19T02:24:30.414Z,98741.34
2023-05-19T02:25:40.067Z,98739.06
2023-05-19T02:26:47.972Z,98743.11
2023-05-19T02:27:55.224Z,98744.48
2023-05-19T02:29:03.899Z,98744.17
2023-05-19T02:30:11.550Z,98744.20
2023-05-19T02:31:19.763Z,98746.59
2023-05-19T02:32:29.113Z,98747.75
2023-05-19T02:33:38.094Z,98750.23
2023-05-19T02:34:46.822Z,98754.85
2023-05-19T02:35:55.309Z,98754.46
2023-05-19T02:37:05.052Z,98759.08
2023-05-19T02:38:12.628Z,98764.03
2023-05-19T02:39:21.116Z,98767.70
2023-05-19T02:40:28.476Z,98764.13
2023-05-19T02:41:36.370Z,98769.74
2023-05-19T02:42:43.518Z,98768.46
2023-05-19T02:43:52.235Z,98767.45
2023-05-19T02:45:01.531Z,98769.55
2023-05-19T02:46:10.758Z,98771.94
2023-05-19T02:47:19.018Z,98775.11
2023-05-19T02:48:26.394Z,98774.83
2023-05-19T02:49:37.111Z,98776.98
2023-05-19T02:50:44.332Z,98775.26
2023-05-19T02:51:51.785Z,98776.59
2023-05-19T02:52:58.723Z,98775.48
2023-05-19T02:54:06.459Z,98778.91
2023-05-19T02:55:19.134Z,98781.64
2023-05-19T02:56:27.817Z,98785.27
2023-05-19T02:57:37.115Z,98785.70
2023-05-19T02:58:48.270Z,98783.87
2023-05-19T02:59:56.982Z,98788.04
2023-05-19T03:01:04.486Z,98787.65
2023-05-19T03:02:13.236Z,98785.23
2023-05-19T03:03:21.203Z,98786.52
2023-05-19T03:04:30.208Z,98788.75
2023-05-19T03:05:38.252Z,98787.86
2023-05-19T03:06:47.912Z,98790.98
2023-05-19T03:07:54.781Z,98790.14
2023-05-19T03:09:02.297Z,98790.85
2023-05-19T03:10:10.418Z,98791.70
2023-05-19T03:11:19.093Z,98794.09
2023-05-19T03:12:26.486Z,98793.36
2023-05-19T03:13:34.592Z,98792.17
2023-05-19T03:14:41.458Z,98792.18
2023-05-19T03:15:49.651Z,98793.70
2023-05-19T03:16:58.833Z,98797.27
2023-05-19T03:18:07.159Z,98800.24
2023-05-19T03:19:15.087Z,98801.29
2023-05-19T03:20:22.633Z,98802.41
2023-05-19T03:21:31.690Z,98803.13
2023-05-19T03:22:40.332Z,98805.52
2023-05-19T03:23:48.403Z,98802.91
2023-05-19T03:24:56.491Z,98803.95
2023-05-19T03:26:05.295Z,98802.42
2023-05-19T03:27:13.927Z,98797.52
2023-05-19T03:28:21.312Z,98801.99
2023-05-19T03:29:29.848Z,98803.27
2023-05-19T03:30:37.971Z,98800.59
2023-05-19T03:31:53.228Z,98805.93
2023-05-19T03:33:03.228Z,98806.88
2023-05-19T03:34:13.777Z,98811.71
2023-05-19T03:35:21.261Z,98812.83
2023-05-19T03:36:33.386Z,98813.00
2023-05-19T03:37:40.367Z,98817.16
2023-05-19T03:38:48.169Z,98814.83
2023-05-19T03:39:55.710Z,98816.16
2023-05-19T03:41:06.392Z,98817.44
2023-05-19T03:42:13.439Z,98820.70
2023-05-19T03:43:20.819Z,98821.37
2023-05-19T03:44:33.812Z,98820.02
2023-05-19T03:45:40.464Z,98819.08
2023-05-19T03:47:06.368Z,98823.70
2023-05-19T03:48:33.795Z,98825.98
2023-05-19T03:50:01.621Z,98825.39
2023-05-19T03:51:30.219Z,98829.69
2023-05-19T03:52:47.578Z,98831.13
2023-05-19T03:54:09.316Z,98830.50
2023-05-19T03:55:18.145Z,98831.62
2023-05-19T03:56:29.144Z,98834.66
2023-05-19T03:57:36.962Z,98837.77
2023-05-19T03:58:45.771Z,98838.44
2023-05-19T03:59:52.695Z,98841.31
2023-05-19T04:01:01.526Z,98843.44
2023-05-19T04:02:09.408Z,98856.23
2023-05-19T04:03:17.533Z,98858.39
2023-05-19T04:04:25.981Z,98860.33
2023-05-19T04:05:34.757Z,98860.27
2023-05-19T04:06:42.567Z,98862.17
2023-05-19T04:07:50.510Z,98862.11
2023-05-19T04:08:58.690Z,98863.27
2023-05-19T04:10:07.392Z,98862.60
2023-05-19T04:11:14.928Z,98864.44
2023-05-19T04:12:23.296Z,98861.75
2023-05-19T04:13:36.418Z,98863.48
2023-05-19T04:14:43.496Z,98862.94
2023-05-19T04:15:52.356Z,98862.58
2023-05-19T04:17:00.165Z,98862.15
2023-05-19T04:18:07.695Z,98866.10
2023-05-19T04:19:16.086Z,98868.09
2023-05-19T04:20:23.666Z,98866.71
2023-05-19T04:21:30.687Z,98869.92
2023-05-19T04:22:37.407Z,98872.25
2023-05-19T04:23:45.235Z,98874.58
2023-05-19T04:24:54.751Z,98873.08
2023-05-19T04:26:04.439Z,98874.02
2023-05-19T04:27:14.334Z,98876.24
2023-05-19T04:28:23.196Z,98877.59
2023-05-19T04:29:32.118Z,98879.27
2023-05-19T04:30:40.933Z,98878.02
2023-05-19T04:31:48.324Z,98879.19
2023-05-19T04:32:56.065Z,98879.63
2023-05-19T04:34:04.068Z,98879.73
2023-05-19T04:35:13.244Z,98875.60
2023-05-19T04:36:22.762Z,98879.50
2023-05-19T04:37:33.381Z,98881.23
2023-05-19T04:38:44.878Z,98882.58
2023-05-19T04:39:53.708Z,98880.45
2023-05-19T04:41:04.236Z,98879.17
2023-05-19T04:42:13.407Z,98883.05
2023-05-19T04:43:22.329Z,98883.38
2023-05-19T04:44:31.955Z,98882.43
2023-05-19T04:45:39.405Z,98880.48
2023-05-19T04:46:48.271Z,98878.92
2023-05-19T04:48:00.312Z,98881.54
2023-05-19T04:49:09.076Z,98884.11
2023-05-19T04:50:16.247Z,98885.55
2023-05-19T04:51:30.592Z,98888.82
2023-05-19T04:52:39.340Z,98888.14
2023-05-19T04:53:46.831Z,98887.65
2023-05-19T04:54:54.186Z,98889.02
2023-05-19T04:56:04.851Z,98890.86
2023-05-19T04:57:12.961Z,98889.85
2023-05-19T04:58:22.360Z,98890.24
2023-05-19T04:59:31.296Z,98889.52
2023-05-19T05:00:39.646Z,98888.05
2023-05-19T05:01:47.183Z,98892.34
2023-05-19T05:02:59.795Z,98893.20
2023-05-19T05:04:09.726Z,98891.23
2023-05-19T05:05:18.683Z,98891.89
2023-05-19T05:06:27.794Z,98891.40
2023-05-19T05:07:36.326Z,98890.39
2023-05-19T05:08:44.432Z,98891.27
2023-05-19T05:09:52.952Z,98889.36
2023-05-19T05:11:01.093Z,98885.86
2023-05-19T05:12:09.610Z,98885.63
2023-05-19T05:13:18.668Z,98885.41
2023-05-19T05:14:26.524Z,98888.26
2023-05-19T05:15:34.340Z,98887.80
2023-05-19T05:16:44.508Z,98888.96
2023-05-19T05:17:56.300Z,98887.80
2023-05-19T05:19:05.290Z,98885.73
2023-05-19T05:20:14.020Z,98886.11
2023-05-19T05:21:22.496Z,98887.89
2023-05-19T05:22:31.318Z,98886.29
2023-05-19T05:23:39.879Z,98886.88
2023-05-19T05:24:48.591Z,98886.31
2023-05-19T05:25:56.757Z,98889.27
2023-05-19T05:27:05.518Z,98886.98
2023-05-19T05:28:13.171Z,98890.36
2023-05-19T05:29:23.461Z,98890.69
2023-05-19T05:30:31.300Z,98891.90
2023-05-19T05:31:38.934Z,98888.33
2023-05-19T05:32:46.741Z,98889.77
2023-05-19T05:34:08.612Z,98893.67
2023-05-19T05:35:19.608Z,98891.45
2023-05-19T05:36:30.674Z,98890.05
2023-05-19T05:37:40.827Z,98889.93
2023-05-19T05:38:47.941Z,98890.20
2023-05-19T05:39:58.106Z,98890.20
2023-05-19T05:41:06.863Z,98892.23
2023-05-19T05:42:15.717Z,98891.48
2023-05-19T05:43:24.787Z,98893.03
2023-05-19T05:44:37.421Z,98891.18
2023-05-19T05:45:44.662Z,98893.79
2023-05-19T05:46:52.911Z,98897.10
2023-05-19T05:48:00.471Z,98897.46
2023-05-19T05:49:07.825Z,98899.12
2023-05-19T05:50:16.536Z,98899.20
2023-05-19T05:51:25.459Z,98899.83
2023-05-19T05:52:33.888Z,98902.30
2023-05-19T05:53:47.172Z,98903.27
2023-05-19T05:54:55.332Z,98902.56
2023-05-19T05:56:03.505Z,98904.16
2023-05-19T05:57:18.475Z,98905.84
2023-05-19T05:58:27.225Z,98905.13
2023-05-19T05:59:35.592Z,98906.54
2023-05-19T06:00:45.475Z,98904.15
2023-05-19T06:01:53.810Z,98909.67
2023-05-19T06:03:01.508Z,98909.95
2023-05-19T06:04:09.567Z,98909.69
2023-05-19T06:05:17.619Z,98913.05
2023-05-19T06:06:26.530Z,98911.98
2023-05-19T06:07:36.612Z,98910.04
2023-05-19T06:08:44.136Z,98913.01
2023-05-19T06:09:52.734Z,98911.90
2023-05-19T06:10:59.972Z,98908.45
2023-05-19T06:12:08.748Z,98909.68
2023-05-19T06:13:26.160Z,98910.58
2023-05-19T06:14:34.021Z,98912.20
2023-05-19T06:15:58.044Z,98914.31
2023-05-19T06:17:12.804Z,98914.02
2023-05-19T06:18:20.601Z,98916.51
2023-05-19T06:19:28.562Z,98916.31
2023-05-19T06:20:37.227Z,98916.89
2023-05-19T06:21:45.058Z,98916.84
2023-05-19T06:22:52.975Z,98917.81
2023-05-19T06:24:01.892Z,98920.31
2023-05-19T06:25:11.124Z,98917.50
2023-05-19T06:26:19.296Z,98917.91
2023-05-19T06:27:27.151Z,98922.66
2023-05-19T06:28:36.290Z,98918.83
2023-05-19T06:29:43.302Z,98919.39
2023-05-19T06:30:51.011Z,98920.52
2023-05-19T06:32:09.066Z,98920.59
2023-05-19T06:33:15.992Z,98919.68
2023-05-19T06:34:27.022Z,98920.67
2023-05-19T06:35:35.459Z,98925.05
2023-05-19T06:36:43.308Z,98926.30
2023-05-19T06:37:50.479Z,98929.29
2023-05-19T06:38:57.736Z,98930.16
2023-05-19T06:40:07.884Z,98935.24
2023-05-19T06:41:17.215Z,98942.85
2023-05-19T06:42:27.175Z,98944.02
2023-05-19T06:43:38.332Z,98944.13
2023-05-19T06:44:45.389Z,98947.24
2023-05-19T06:45:52.471Z,98946.26
2023-05-19T06:46:59.436Z,98945.99
2023-05-19T06:48:07.104Z,98945.71
2023-05-19T06:49:14.258Z,98946.35
2023-05-19T06:50:22.039Z,98944.88
2023-05-19T06:51:28.814Z,98945.96
2023-05-19T06:52:36.193Z,98946.16
2023-05-19T06:53:42.918Z,98944.54
2023-05-19T06:54:52.757Z,98943.80
2023-05-19T06:56:00.672Z,98940.71
2023-05-19T06:57:14.263Z,98940.42
2023-05-19T06:58:21.278Z,98940.61
2023-05-19T06:59:28.462Z,98940.31
2023-05-19T07:00:36.263Z,98941.77
2023-05-19T07:01:45.560Z,98939.70
2023-05-19T07:02:53.012Z,98941.48
2023-05-19T07:04:01.373Z,98938.90
2023-05-19T07:05:10.482Z,98938.44
2023-05-19T07:06:17.691Z,98936.58
2023-05-19T07:07:25.060Z,98931.52
2023-05-19T07:08:32.905Z,98935.00
2023-05-19T07:09:41.399Z,98931.48
2023-05-19T07:10:48.523Z,98930.11
2023-05-19T07:11:56.483Z,98930.60
2023-05-19T07:13:04.518Z,98934.04
2023-05-19T07:14:13.689Z,98932.56
2023-05-19T07:15:20.784Z,98935.40
2023-05-19T07:16:32.253Z,98932.54
2023-05-19T07:17:39.147Z,98930.98
2023-05-19T07:18:46.484Z,98932.98
2023-05-19T07:19:53.610Z,98930.69
2023-05-19T07:21:00.927Z,98932.64
2023-05-19T07:22:07.992Z,98931.69
2023-05-19T07:23:17.218Z,98929.00
2023-05-19T07:24:26.497Z,98929.52
2023-05-19T07:25:34.714Z,98927.51
2023-05-19T07:26:42.312Z,98923.77
2023-05-19T07:27:49.413Z,98923.08
2023-05-19T07:28:56.503Z,98923.73
2023-05-19T07:30:03.594Z,98926.16
2023-05-19T07:31:11.126Z,98926.42
2023-05-19T07:32:18.339Z,98925.25
2023-05-19T07:33:25.745Z,98929.81
2023-05-19T07:34:32.944Z,98928.87
2023-05-19T07:35:39.773Z,98928.64
2023-05-19T07:36:46.564Z,98932.25
2023-05-19T07:37:54.601Z,98930.73
2023-05-19T07:39:01.759Z,98929.95
2023-05-19T07:40:14.085Z,98927.27
2023-05-19T07:41:20.785Z,98926.19
2023-05-19T07:42:28.588Z,98922.68
2023-05-19T07:43:35.459Z,98919.39
2023-05-19T07:44:43.066Z,98915.49
2023-05-19T07:45:54.845Z,98916.98
2023-05-19T07:47:02.077Z,98914.24
2023-05-19T07:48:09.578Z,98910.02
2023-05-19T07:49:17.067Z,98910.11
2023-05-19T07:50:24.085Z,98910.66
2023-05-19T07:51:33.062Z,98911.09
2023-05-19T07:52:39.942Z,98909.36
2023-05-19T07:53:49.449Z,98909.30
2023-05-19T07:54:56.394Z,98913.70
2023-05-19T07:56:03.197Z,98913.58
2023-05-19T07:57:10.752Z,98911.71
2023-05-19T07:58:17.727Z,98911.31
2023-05-19T07:59:25.515Z,98913.58
2023-05-19T08:00:32.470Z,98916.46
2023-05-19T08:01:40.072Z,98918.11
2023-05-19T08:02:47.483Z,98915.82
2023-05-19T08:03:54.745Z,98914.65
2023-05-19T08:05:01.925Z,98916.02
2023-05-19T08:06:09.254Z,98914.36
2023-05-19T08:07:16.113Z,98912.19
2023-05-19T08:08:23.436Z,98914.29
2023-05-19T08:09:31.143Z,98914.48
2023-05-19T08:10:38.135Z,98913.20
2023-05-19T08:11:46.408Z,98914.26
2023-05-19T08:12:54.955Z,98916.33
2023-05-19T08:14:03.494Z,98917.94
2023-05-19T08:15:13.478Z,98921.78
2023-05-19T08:16:21.552Z,98924.90
2023-05-19T08:17:30.117Z,98926.51
2023-05-19T08:18:38.170Z,98927.39
2023-05-19T08:19:45.587Z,98928.34
2023-05-19T08:20:53.988Z,98928.95
2023-05-19T08:22:02.372Z,98926.14
2023-05-19T08:23:10.137Z,98923.19
2023-05-19T08:24:18.531Z,98923.95
2023-05-19T08:25:26.426Z,98924.72
2023-05-19T08:26:36.957Z,98925.58
2023-05-19T08:27:45.312Z,98922.23
2023-05-19T08:28:52.354Z,98918.97
2023-05-19T08:30:00.603Z,98911.82
2023-05-19T08:31:08.805Z,98912.19
2023-05-19T08:32:16.764Z,98914.11
2023-05-19T08:33:24.836Z,98914.91
2023-05-19T08:34:32.576Z,98911.83
2023-05-19T08:35:40.458Z,98912.77
2023-05-19T08:36:49.479Z,98912.60
2023-05-19T08:37:57.415Z,98910.08
2023-05-19T08:39:05.329Z,98908.91
2023-05-19T08:40:17.520Z,98907.06
2023-05-19T08:41:25.787Z,98907.10
2023-05-19T08:42:34.609Z,98908.15
2023-05-19T08:43:41.287Z,98906.86
2023-05-19T08:44:48.398Z,98908.23
2023-05-19T08:45:55.635Z,98909.09
2023-05-19T08:47:05.386Z,98905.17
2023-05-19T08:48:13.553Z,98907.02
2023-05-19T08:49:25.635Z,98900.67
2023-05-19T08:50:35.322Z,98900.78
2023-05-19T08:52:18.186Z,98895.46
2023-05-19T08:53:34.060Z,98893.73
2023-05-19T08:55:09.767Z,98892.32
2023-05-19T08:56:19.854Z,98893.02
2023-05-19T08:57:27.371Z,98893.85
2023-05-19T08:58:35.546Z,98893.56
2023-05-19T08:59:43.344Z,98892.11
2023-05-19T09:00:51.285Z,98891.69
2023-05-19T09:01:59.422Z,98894.59
2023-05-19T09:04:18.505Z,98904.36
2023-05-19T09:05:25.781Z,98901.73
2023-05-19T09:06:35.935Z,98901.11
2023-05-19T09:07:44.437Z,98898.75
2023-05-19T09:08:52.243Z,98898.53
2023-05-19T09:09:59.244Z,98897.46
2023-05-19T09:11:06.913Z,98897.05
2023-05-19T09:12:14.237Z,98895.71
2023-05-19T09:13:20.857Z,98898.11
2023-05-19T09:14:32.271Z,98898.04
2023-05-19T09:15:39.855Z,98897.02
2023-05-19T09:16:52.290Z,98894.70
2023-05-19T09:18:13.478Z,98890.79
2023-05-19T09:19:23.170Z,98890.19
2023-05-19T09:20:33.076Z,98894.34
2023-05-19T09:21:39.845Z,98895.79
2023-05-19T09:22:48.738Z,98894.27
2023-05-19T09:23:57.472Z,98895.45
2023-05-19T09:25:06.268Z,98897.38
2023-05-19T09:26:14.290Z,98896.59
2023-05-19T09:27:24.908Z,98893.65
2023-05-19T09:28:34.277Z,98897.58
2023-05-19T09:29:42.182Z,98897.35
2023-05-19T09:30:50.447Z,98898.08
2023-05-19T09:32:01.970Z,98897.67
2023-05-19T09:33:12.145Z,98897.38
2023-05-19T09:34:20.198Z,98899.82
2023-05-19T09:35:27.728Z,98898.02
2023-05-19T09:36:35.704Z,98901.36
2023-05-19T09:37:43.086Z,98898.96
2023-05-19T09:38:50.744Z,98898.61
2023-05-19T09:39:59.460Z,98899.89
2023-05-19T09:41:08.191Z,98899.67
2023-05-19T09:42:15.094Z,98898.65
2023-05-19T09:43:23.881Z,98899.08
2023-05-19T09:44:32.399Z,98900.29
2023-05-19T09:45:40.282Z,98900.56
2023-05-19T09:46:50.571Z,98899.70
2023-05-19T09:47:58.771Z,98900.91
2023-05-19T09:49:11.735Z,98901.84
2023-05-19T09:50:18.758Z,98898.98
2023-05-19T09:51:25.671Z,98897.09
2023-05-19T09:52:32.960Z,98895.95
2023-05-19T09:53:40.273Z,98894.76
2023-05-19T09:54:49.368Z,98895.59
2023-05-19T09:56:00.311Z,98893.81
2023-05-19T09:57:09.060Z,98894.70
2023-05-19T09:58:20.360Z,98892.80
2023-05-19T09:59:31.530Z,98893.92
2023-05-19T10:00:40.407Z,98891.98
2023-05-19T10:01:47.882Z,98888.73
2023-05-19T10:02:54.911Z,98887.18
2023-05-19T10:04:03.705Z,98889.91
2023-05-19T10:05:22.116Z,98888.89
2023-05-19T10:06:30.934Z,98890.49
2023-05-19T10:07:39.062Z,98890.52
2023-05-19T10:08:47.539Z,98891.80
2023-05-19T10:09:56.598Z,98894.17
2023-05-19T10:11:05.139Z,98892.56
2023-05-19T10:12:13.624Z,98894.40
2023-05-19T10:13:21.797Z,98893.38
2023-05-19T10:14:30.841Z,98891.02
2023-05-19T10:15:49.957Z,98890.44
2023-05-19T10:17:04.925Z,98887.55
2023-05-19T10:18:13.057Z,98889.83
2023-05-19T10:19:24.712Z,98892.09
2023-05-19T10:20:32.797Z,98890.25
2023-05-19T10:21:39.803Z,98890.42
2023-05-19T10:22:47.602Z,98887.73
2023-05-19T10:23:54.460Z,98890.39
2023-05-19T10:25:02.057Z,98887.04
2023-05-19T10:26:09.559Z,98886.90
2023-05-19T10:27:16.919Z,98889.63
2023-05-19T10:28:26.968Z,98886.15
2023-05-19T10:29:37.921Z,98883.06
2023-05-19T10:30:49.256Z,98883.15
2023-05-19T10:31:57.194Z,98883.65
2023-05-19T10:33:06.108Z,98880.08
2023-05-19T10:34:45.469Z,98879.09
2023-05-19T10:36:27.242Z,98878.67
2023-05-19T10:38:06.370Z,98877.28
2023-05-19T10:39:37.933Z,98876.00
2023-05-19T10:41:21.137Z,98876.07
2023-05-19T10:42:41.678Z,98879.84
2023-05-19T10:44:15.743Z,98882.23
2023-05-19T10:45:24.439Z,98886.30
2023-05-19T10:46:32.353Z,98890.09
2023-05-19T10:47:40.436Z,98895.05
2023-05-19T10:48:49.384Z,98900.52
2023-05-19T10:49:57.657Z,98905.37
2023-05-19T10:51:06.424Z,98905.44
2023-05-19T10:52:25.287Z,98905.92
2023-05-19T10:53:39.142Z,98909.34
2023-05-19T10:54:50.617Z,98914.02
2023-05-19T10:55:57.921Z,98917.97
2023-05-19T10:57:06.787Z,98918.73
2023-05-19T10:58:15.599Z,98921.85
2023-05-19T10:59:33.684Z,98922.25
2023-05-19T11:00:40.895Z,98925.63
2023-05-19T11:01:48.825Z,98928.79
2023-05-19T11:02:59.693Z,98931.67
2023-05-19T11:04:08.645Z,98934.73
2023-05-19T11:05:21.834Z,98940.32
2023-05-19T11:06:33.639Z,98945.04
2023-05-19T11:07:45.379Z,98946.55
2023-05-19T11:09:03.768Z,98953.08
2023-05-19T11:10:11.992Z,98950.36
2023-05-19T11:11:20.618Z,98952.27
2023-05-19T11:12:28.202Z,98951.19
2023-05-19T11:13:36.699Z,98946.33
2023-05-19T11:14:44.307Z,98946.92
2023-05-19T11:15:52.481Z,98950.54
2023-05-19T11:17:01.090Z,98952.05
2023-05-19T11:18:10.447Z,98953.92
2023-05-19T11:19:29.963Z,98955.73
2023-05-19T11:20:38.619Z,98957.50
2023-05-19T11:21:54.360Z,98957.91
2023-05-19T11:23:12.840Z,98959.34
2023-05-19T11:24:41.617Z,98957.89
2023-05-19T11:25:57.901Z,98955.27
2023-05-19T11:27:34.893Z,98961.52
2023-05-19T11:28:42.328Z,98961.91
2023-05-19T11:29:51.195Z,98967.09
2023-05-19T11:31:00.328Z,98964.80
2023-05-19T11:32:08.056Z,98948.44
2023-05-19T11:33:16.364Z,98945.92
2023-05-19T11:34:27.450Z,98945.77
2023-05-19T11:35:36.515Z,98948.55
2023-05-19T11:36:44.864Z,98952.02
2023-05-19T11:37:54.456Z,98951.13
2023-05-19T11:39:03.270Z,98952.64
2023-05-19T11:40:11.387Z,98953.36
2023-05-19T11:41:19.528Z,98957.27
2023-05-19T11:42:29.126Z,98957.27
2023-05-19T11:43:37.422Z,98958.65
2023-05-19T11:44:49.791Z,98957.75
2023-05-19T11:46:00.571Z,98959.82
2023-05-19T11:47:08.163Z,98962.15
2023-05-19T11:48:17.578Z,98960.73
2023-05-19T11:49:24.866Z,98959.88
2023-05-19T11:50:36.520Z,98958.17
2023-05-19T11:51:51.690Z,98958.77
2023-05-19T11:52:59.536Z,98957.65
2023-05-19T11:54:08.667Z,98955.88
2023-05-19T11:55:23.543Z,98955.16
2023-05-19T11:56:37.128Z,98953.48
2023-05-19T11:57:56.059Z,98949.02
2023-05-19T11:59:13.057Z,98952.63
2023-05-19T12:00:21.494Z,98953.98
2023-05-19T12:01:29.132Z,98952.97
2023-05-19T12:02:37.711Z,98952.84
2023-05-19T12:03:46.364Z,98953.50
2023-05-19T12:04:54.183Z,98953.21
2023-05-19T12:06:00.956Z,98955.67
2023-05-19T12:07:09.588Z,98952.23
2023-05-19T12:08:18.830Z,98951.16
2023-05-19T12:09:27.287Z,98952.71
2023-05-19T12:10:38.345Z,98953.14
2023-05-19T12:11:45.851Z,98951.54
2023-05-19T12:12:53.695Z,98947.95
2023-05-19T12:14:02.173Z,98946.18
2023-05-19T12:15:11.072Z,98941.05
2023-05-19T12:16:21.862Z,98942.20
2023-05-19T12:17:29.271Z,98942.36
2023-05-19T12:18:39.231Z,98941.98
2023-05-19T12:19:47.819Z,98941.33
2023-05-19T12:20:56.021Z,98944.56
2023-05-19T12:22:04.218Z,98947.03
2023-05-19T12:23:11.037Z,98946.45
2023-05-19T12:24:18.807Z,98947.52
2023-05-19T12:25:26.709Z,98950.28
2023-05-19T12:26:34.215Z,98952.73
2023-05-19T12:27:41.262Z,98956.34
2023-05-19T12:28:49.367Z,98963.23
2023-05-19T12:29:59.171Z,98965.31
2023-05-19T12:31:07.661Z,98969.52
2023-05-19T12:32:15.528Z,98970.80
2023-05-19T12:33:24.588Z,98973.74
2023-05-19T12:34:32.743Z,98973.19
2023-05-19T12:35:40.072Z,98974.35
2023-05-19T12:36:48.084Z,98972.77
2023-05-19T12:37:56.024Z,98973.16
2023-05-19T12:39:03.663Z,98974.44
2023-05-19T12:40:12.160Z,98973.20
2023-05-19T12:41:19.810Z,98976.30
2023-05-19T12:42:32.488Z,98979.65
2023-05-19T12:43:39.550Z,98983.23
2023-05-19T12:44:51.339Z,98988.17
2023-05-19T12:45:58.376Z,98992.06
2023-05-19T12:47:09.071Z,98993.45
2023-05-19T12:48:21.152Z,98989.86
2023-05-19T12:49:29.385Z,98991.61
2023-05-19T12:50:36.865Z,98991.10
2023-05-19T12:51:44.026Z,98994.70
2023-05-19T12:52:54.951Z,98995.91
2023-05-19T12:54:09.357Z,98996.00
2023-05-19T12:55:18.004Z,98995.14
2023-05-19T12:56:28.773Z,98996.80
2023-05-19T12:57:40.439Z,98997.41
2023-05-19T12:58:47.950Z,98998.21
2023-05-19T12:59:55.554Z,99002.25
2023-05-19T13:01:02.953Z,99004.34
2023-05-19T13:02:10.529Z,99008.11
2023-05-19T13:03:22.954Z,99010.38
2023-05-19T13:04:31.974Z,99014.23
2023-05-19T13:05:40.371Z,99012.66
2023-05-19T13:06:50.902Z,99012.05
2023-05-19T13:08:03.217Z,99017.33
2023-05-19T13:09:10.374Z,99016.73
2023-05-19T13:10:20.740Z,99017.81
2023-05-19T13:11:32.132Z,99018.55
2023-05-19T13:12:39.505Z,99019.28
2023-05-19T13:13:46.956Z,99024.78
2023-05-19T13:14:55.634Z,99024.69
2023-05-19T13:16:02.517Z,99030.42
2023-05-19T13:17:09.528Z,99026.60
2023-05-19T13:18:20.881Z,99026.80
2023-05-19T13:19:28.935Z,99025.98
2023-05-19T13:20:37.636Z,99019.80
2023-05-19T13:21:45.252Z,99019.70
2023-05-19T13:22:52.769Z,99018.86
2023-05-19T13:24:00.350Z,99022.50
2023-05-19T13:25:08.502Z,99020.90
2023-05-19T13:26:15.426Z,99022.24
2023-05-19T13:27:24.135Z,99025.72
2023-05-19T13:28:32.635Z,99031.14
2023-05-19T13:29:39.332Z,99035.59
2023-05-19T13:30:46.841Z,99038.17
2023-05-19T13:31:53.419Z,99046.21
2023-05-19T13:33:00.247Z,99052.73
2023-05-19T13:34:10.483Z,99056.86
2023-05-19T13:35:18.097Z,99059.61
2023-05-19T13:36:24.974Z,99061.58
2023-05-19T13:37:32.230Z,99062.87
2023-05-19T13:38:39.378Z,99065.55
2023-05-19T13:39:46.014Z,99068.02
2023-05-19T13:40:52.832Z,99067.56
2023-05-19T13:42:01.262Z,99071.13
2023-05-19T13:43:09.175Z,99073.83
2023-05-19T13:44:16.962Z,99075.85